sensor_id;sensor_type;location;lat;lon;timestamp;P1;durP1;ratioP1;P2;durP2;ratioP2
68365;SDS011;55283;51.466;5.478;2022-11-20T00:01:42;12.13;;;10.30;;
68365;SDS011;55283;51.466;5.478;2022-11-20T00:04:08;12.27;;;10.50;;
68365;SDS011;55283;51.466;5.478;2022-11-20T00:06:38;12.45;;;10.38;;
68365;SDS011;55283;51.466;5.478;2022-11-20T00:09:03;12.03;;;10.30;;
68365;SDS011;55283;51.466;5.478;2022-11-20T00:11:32;12.15;;;10.27;;
68365;SDS011;55283;51.466;5.478;2022-11-20T00:13:58;12.10;;;10.00;;
68365;SDS011;55283;51.466;5.478;2022-11-20T00:16:25;11.45;;;9.75;;
68365;SDS011;55283;51.466;5.478;2022-11-20T00:18:52;12.27;;;9.70;;
68365;SDS011;55283;51.466;5.478;2022-11-20T00:21:19;10.83;;;9.53;;
68365;SDS011;55283;51.466;5.478;2022-11-20T00:23:49;11.43;;;9.88;;
68365;SDS011;55283;51.466;5.478;2022-11-20T00:26:17;11.65;;;9.45;;
68365;SDS011;55283;51.466;5.478;2022-11-20T00:28:44;11.80;;;9.67;;
68365;SDS011;55283;51.466;5.478;2022-11-20T00:31:15;12.75;;;9.20;;
68365;SDS011;55283;51.466;5.478;2022-11-20T00:33:41;10.52;;;8.50;;
68365;SDS011;55283;51.466;5.478;2022-11-20T00:36:09;10.70;;;8.67;;
68365;SDS011;55283;51.466;5.478;2022-11-20T00:38:36;9.27;;;8.15;;
68365;SDS011;55283;51.466;5.478;2022-11-20T00:41:02;10.03;;;8.70;;
68365;SDS011;55283;51.466;5.478;2022-11-20T00:43:31;10.23;;;8.40;;
68365;SDS011;55283;51.466;5.478;2022-11-20T00:46:00;10.57;;;8.70;;
68365;SDS011;55283;51.466;5.478;2022-11-20T00:48:27;9.73;;;8.07;;
68365;SDS011;55283;51.466;5.478;2022-11-20T00:50:58;10.13;;;8.00;;
68365;SDS011;55283;51.466;5.478;2022-11-20T00:53:26;9.50;;;8.35;;
68365;SDS011;55283;51.466;5.478;2022-11-20T00:56:01;8.70;;;7.57;;
68365;SDS011;55283;51.466;5.478;2022-11-20T00:58:32;8.90;;;7.70;;
68365;SDS011;55283;51.466;5.478;2022-11-20T01:00:59;9.35;;;8.02;;
68365;SDS011;55283;51.466;5.478;2022-11-20T01:03:30;8.43;;;7.35;;
68365;SDS011;55283;51.466;5.478;2022-11-20T01:06:04;9.13;;;7.87;;
68365;SDS011;55283;51.466;5.478;2022-11-20T01:08:44;8.18;;;7.38;;
68365;SDS011;55283;51.466;5.478;2022-11-20T01:11:12;9.07;;;7.57;;
68365;SDS011;55283;51.466;5.478;2022-11-20T01:13:41;9.13;;;7.90;;
68365;SDS011;55283;51.466;5.478;2022-11-20T01:18:32;9.07;;;7.07;;
68365;SDS011;55283;51.466;5.478;2022-11-20T01:21:07;8.55;;;7.18;;
68365;SDS011;55283;51.466;5.478;2022-11-20T01:23:35;8.30;;;7.18;;
68365;SDS011;55283;51.466;5.478;2022-11-20T01:26:05;8.10;;;7.00;;
68365;SDS011;55283;51.466;5.478;2022-11-20T01:28:33;8.45;;;7.25;;
68365;SDS011;55283;51.466;5.478;2022-11-20T01:30:59;7.95;;;6.80;;
68365;SDS011;55283;51.466;5.478;2022-11-20T01:33:25;9.37;;;7.20;;
68365;SDS011;55283;51.466;5.478;2022-11-20T01:35:50;7.97;;;6.50;;
68365;SDS011;55283;51.466;5.478;2022-11-20T01:38:16;8.90;;;7.00;;
68365;SDS011;55283;51.466;5.478;2022-11-20T01:40:42;8.37;;;6.50;;
68365;SDS011;55283;51.466;5.478;2022-11-20T01:43:18;7.82;;;6.47;;
68365;SDS011;55283;51.466;5.478;2022-11-20T01:48:28;7.47;;;6.10;;
68365;SDS011;55283;51.466;5.478;2022-11-20T01:51:12;6.97;;;5.93;;
68365;SDS011;55283;51.466;5.478;2022-11-20T01:53:41;7.32;;;6.15;;
68365;SDS011;55283;51.466;5.478;2022-11-20T01:56:08;7.73;;;6.50;;
68365;SDS011;55283;51.466;5.478;2022-11-20T01:58:37;7.63;;;6.22;;
68365;SDS011;55283;51.466;5.478;2022-11-20T02:01:06;7.15;;;6.07;;
68365;SDS011;55283;51.466;5.478;2022-11-20T02:03:32;7.57;;;6.00;;
68365;SDS011;55283;51.466;5.478;2022-11-20T02:08:26;6.88;;;6.15;;
68365;SDS011;55283;51.466;5.478;2022-11-20T02:10:52;7.47;;;5.97;;
68365;SDS011;55283;51.466;5.478;2022-11-20T02:13:18;8.03;;;5.97;;
68365;SDS011;55283;51.466;5.478;2022-11-20T02:16:02;6.70;;;5.40;;
68365;SDS011;55283;51.466;5.478;2022-11-20T02:18:28;6.30;;;5.70;;
68365;SDS011;55283;51.466;5.478;2022-11-20T02:21:01;6.93;;;5.40;;
68365;SDS011;55283;51.466;5.478;2022-11-20T02:23:38;6.43;;;5.70;;
68365;SDS011;55283;51.466;5.478;2022-11-20T02:26:09;6.43;;;5.57;;
68365;SDS011;55283;51.466;5.478;2022-11-20T02:28:37;6.40;;;5.30;;
68365;SDS011;55283;51.466;5.478;2022-11-20T02:31:05;6.47;;;5.33;;
68365;SDS011;55283;51.466;5.478;2022-11-20T02:33:34;6.57;;;5.32;;
68365;SDS011;55283;51.466;5.478;2022-11-20T02:35:59;6.57;;;5.40;;
68365;SDS011;55283;51.466;5.478;2022-11-20T02:38:26;6.57;;;5.68;;
68365;SDS011;55283;51.466;5.478;2022-11-20T02:40:52;6.00;;;5.25;;
68365;SDS011;55283;51.466;5.478;2022-11-20T02:43:18;6.80;;;5.57;;
68365;SDS011;55283;51.466;5.478;2022-11-20T02:45:47;5.47;;;4.75;;
68365;SDS011;55283;51.466;5.478;2022-11-20T02:48:13;5.80;;;5.15;;
68365;SDS011;55283;51.466;5.478;2022-11-20T02:50:41;6.10;;;5.00;;
68365;SDS011;55283;51.466;5.478;2022-11-20T02:53:07;5.80;;;4.97;;
68365;SDS011;55283;51.466;5.478;2022-11-20T02:55:34;6.20;;;5.10;;
68365;SDS011;55283;51.466;5.478;2022-11-20T02:58:01;6.15;;;5.18;;
68365;SDS011;55283;51.466;5.478;2022-11-20T03:00:28;5.63;;;4.80;;
68365;SDS011;55283;51.466;5.478;2022-11-20T03:02:55;6.15;;;5.30;;
68365;SDS011;55283;51.466;5.478;2022-11-20T03:05:20;5.80;;;5.10;;
68365;SDS011;55283;51.466;5.478;2022-11-20T03:07:46;6.27;;;5.20;;
68365;SDS011;55283;51.466;5.478;2022-11-20T03:10:13;5.53;;;4.80;;
68365;SDS011;55283;51.466;5.478;2022-11-20T03:12:40;5.37;;;4.80;;
68365;SDS011;55283;51.466;5.478;2022-11-20T03:15:07;5.70;;;4.80;;
68365;SDS011;55283;51.466;5.478;2022-11-20T03:17:33;7.28;;;5.00;;
68365;SDS011;55283;51.466;5.478;2022-11-20T03:20:00;5.07;;;4.57;;
68365;SDS011;55283;51.466;5.478;2022-11-20T03:22:28;6.13;;;4.90;;
68365;SDS011;55283;51.466;5.478;2022-11-20T03:24:54;5.75;;;4.90;;
68365;SDS011;55283;51.466;5.478;2022-11-20T03:27:21;5.28;;;4.50;;
68365;SDS011;55283;51.466;5.478;2022-11-20T03:29:48;5.23;;;4.70;;
68365;SDS011;55283;51.466;5.478;2022-11-20T03:32:14;5.03;;;4.50;;
68365;SDS011;55283;51.466;5.478;2022-11-20T03:34:41;4.93;;;4.32;;
68365;SDS011;55283;51.466;5.478;2022-11-20T03:37:06;5.13;;;4.43;;
68365;SDS011;55283;51.466;5.478;2022-11-20T03:39:33;4.82;;;4.10;;
68365;SDS011;55283;51.466;5.478;2022-11-20T03:41:59;5.00;;;4.40;;
68365;SDS011;55283;51.466;5.478;2022-11-20T03:44:26;4.90;;;4.40;;
68365;SDS011;55283;51.466;5.478;2022-11-20T03:46:51;5.40;;;4.85;;
68365;SDS011;55283;51.466;5.478;2022-11-20T03:49:17;5.67;;;4.60;;
68365;SDS011;55283;51.466;5.478;2022-11-20T03:51:44;5.68;;;4.53;;
68365;SDS011;55283;51.466;5.478;2022-11-20T03:54:09;5.13;;;4.30;;
68365;SDS011;55283;51.466;5.478;2022-11-20T03:56:37;5.47;;;4.75;;
68365;SDS011;55283;51.466;5.478;2022-11-20T03:59:05;5.90;;;4.77;;
68365;SDS011;55283;51.466;5.478;2022-11-20T04:01:31;4.88;;;4.40;;
68365;SDS011;55283;51.466;5.478;2022-11-20T04:04:00;5.05;;;4.55;;
68365;SDS011;55283;51.466;5.478;2022-11-20T04:06:29;5.70;;;4.90;;
68365;SDS011;55283;51.466;5.478;2022-11-20T04:09:02;5.55;;;5.00;;
68365;SDS011;55283;51.466;5.478;2022-11-20T04:11:30;5.68;;;4.90;;
68365;SDS011;55283;51.466;5.478;2022-11-20T04:13:58;5.77;;;4.50;;
68365;SDS011;55283;51.466;5.478;2022-11-20T04:16:28;5.45;;;4.68;;
68365;SDS011;55283;51.466;5.478;2022-11-20T04:18:57;5.50;;;4.60;;
68365;SDS011;55283;51.466;5.478;2022-11-20T04:21:25;5.93;;;4.40;;
68365;SDS011;55283;51.466;5.478;2022-11-20T04:23:53;5.35;;;4.50;;
68365;SDS011;55283;51.466;5.478;2022-11-20T04:26:20;5.43;;;4.53;;
68365;SDS011;55283;51.466;5.478;2022-11-20T04:28:49;4.88;;;4.35;;
68365;SDS011;55283;51.466;5.478;2022-11-20T04:31:27;5.27;;;4.60;;
68365;SDS011;55283;51.466;5.478;2022-11-20T04:34:00;5.25;;;4.60;;
68365;SDS011;55283;51.466;5.478;2022-11-20T04:36:30;4.90;;;4.32;;
68365;SDS011;55283;51.466;5.478;2022-11-20T04:38:57;5.13;;;4.50;;
68365;SDS011;55283;51.466;5.478;2022-11-20T04:41:28;5.38;;;4.50;;
68365;SDS011;55283;51.466;5.478;2022-11-20T04:43:57;4.53;;;4.13;;
68365;SDS011;55283;51.466;5.478;2022-11-20T04:46:30;5.60;;;4.10;;
68365;SDS011;55283;51.466;5.478;2022-11-20T04:49:01;4.85;;;4.32;;
68365;SDS011;55283;51.466;5.478;2022-11-20T04:51:26;5.10;;;4.37;;
68365;SDS011;55283;51.466;5.478;2022-11-20T04:53:53;5.20;;;4.28;;
68365;SDS011;55283;51.466;5.478;2022-11-20T04:56:18;5.03;;;4.05;;
68365;SDS011;55283;51.466;5.478;2022-11-20T04:58:44;4.50;;;4.10;;
68365;SDS011;55283;51.466;5.478;2022-11-20T05:01:11;4.50;;;4.10;;
68365;SDS011;55283;51.466;5.478;2022-11-20T05:03:40;5.00;;;4.50;;
68365;SDS011;55283;51.466;5.478;2022-11-20T05:06:08;5.25;;;4.00;;
68365;SDS011;55283;51.466;5.478;2022-11-20T05:08:34;4.90;;;4.40;;
68365;SDS011;55283;51.466;5.478;2022-11-20T05:11:04;5.37;;;4.30;;
68365;SDS011;55283;51.466;5.478;2022-11-20T05:13:36;4.40;;;3.85;;
68365;SDS011;55283;51.466;5.478;2022-11-20T05:16:06;4.70;;;4.20;;
68365;SDS011;55283;51.466;5.478;2022-11-20T05:18:40;4.38;;;3.97;;
68365;SDS011;55283;51.466;5.478;2022-11-20T05:21:08;5.35;;;4.47;;
68365;SDS011;55283;51.466;5.478;2022-11-20T05:23:35;4.80;;;4.28;;
68365;SDS011;55283;51.466;5.478;2022-11-20T05:26:02;4.40;;;4.00;;
68365;SDS011;55283;51.466;5.478;2022-11-20T05:28:29;8.95;;;4.30;;
68365;SDS011;55283;51.466;5.478;2022-11-20T05:31:04;4.57;;;3.60;;
68365;SDS011;55283;51.466;5.478;2022-11-20T05:33:31;5.90;;;4.27;;
68365;SDS011;55283;51.466;5.478;2022-11-20T05:35:59;5.85;;;4.20;;
68365;SDS011;55283;51.466;5.478;2022-11-20T05:38:25;4.20;;;3.80;;
68365;SDS011;55283;51.466;5.478;2022-11-20T05:40:50;5.23;;;3.80;;
68365;SDS011;55283;51.466;5.478;2022-11-20T05:43:16;4.13;;;3.72;;
68365;SDS011;55283;51.466;5.478;2022-11-20T05:45:42;4.30;;;3.90;;
68365;SDS011;55283;51.466;5.478;2022-11-20T05:48:09;4.50;;;4.10;;
68365;SDS011;55283;51.466;5.478;2022-11-20T05:50:36;4.78;;;3.72;;
68365;SDS011;55283;51.466;5.478;2022-11-20T05:53:01;4.17;;;3.50;;
68365;SDS011;55283;51.466;5.478;2022-11-20T05:55:27;4.67;;;3.90;;
68365;SDS011;55283;51.466;5.478;2022-11-20T05:57:53;4.55;;;3.85;;
68365;SDS011;55283;51.466;5.478;2022-11-20T06:00:19;4.18;;;3.75;;
68365;SDS011;55283;51.466;5.478;2022-11-20T06:02:46;4.40;;;3.67;;
68365;SDS011;55283;51.466;5.478;2022-11-20T06:05:13;4.22;;;3.83;;
68365;SDS011;55283;51.466;5.478;2022-11-20T06:07:39;4.37;;;3.60;;
68365;SDS011;55283;51.466;5.478;2022-11-20T06:10:09;3.92;;;3.50;;
68365;SDS011;55283;51.466;5.478;2022-11-20T06:12:36;4.82;;;3.58;;
68365;SDS011;55283;51.466;5.478;2022-11-20T06:15:02;5.67;;;3.70;;
68365;SDS011;55283;51.466;5.478;2022-11-20T06:17:29;5.20;;;3.90;;
68365;SDS011;55283;51.466;5.478;2022-11-20T06:19:54;4.10;;;3.63;;
68365;SDS011;55283;51.466;5.478;2022-11-20T06:22:20;4.13;;;3.72;;
68365;SDS011;55283;51.466;5.478;2022-11-20T06:24:46;6.63;;;3.83;;
68365;SDS011;55283;51.466;5.478;2022-11-20T06:27:12;6.00;;;4.20;;
68365;SDS011;55283;51.466;5.478;2022-11-20T06:29:39;5.32;;;4.38;;
68365;SDS011;55283;51.466;5.478;2022-11-20T06:32:06;7.03;;;4.50;;
68365;SDS011;55283;51.466;5.478;2022-11-20T06:34:33;5.50;;;4.67;;
68365;SDS011;55283;51.466;5.478;2022-11-20T06:37:00;5.20;;;4.28;;
68365;SDS011;55283;51.466;5.478;2022-11-20T06:39:30;4.57;;;4.00;;
68365;SDS011;55283;51.466;5.478;2022-11-20T06:41:57;5.47;;;4.30;;
68365;SDS011;55283;51.466;5.478;2022-11-20T06:44:22;5.28;;;4.20;;
68365;SDS011;55283;51.466;5.478;2022-11-20T06:46:48;4.47;;;4.07;;
68365;SDS011;55283;51.466;5.478;2022-11-20T06:49:18;4.75;;;4.25;;
68365;SDS011;55283;51.466;5.478;2022-11-20T06:51:44;4.65;;;4.00;;
68365;SDS011;55283;51.466;5.478;2022-11-20T06:54:11;4.83;;;4.07;;
68365;SDS011;55283;51.466;5.478;2022-11-20T06:56:36;5.05;;;4.00;;
68365;SDS011;55283;51.466;5.478;2022-11-20T06:59:04;4.97;;;4.00;;
68365;SDS011;55283;51.466;5.478;2022-11-20T07:01:32;4.70;;;4.13;;
68365;SDS011;55283;51.466;5.478;2022-11-20T07:03:58;5.18;;;3.70;;
68365;SDS011;55283;51.466;5.478;2022-11-20T07:06:25;4.30;;;3.90;;
68365;SDS011;55283;51.466;5.478;2022-11-20T07:08:51;4.45;;;3.75;;
68365;SDS011;55283;51.466;5.478;2022-11-20T07:11:20;6.95;;;3.58;;
68365;SDS011;55283;51.466;5.478;2022-11-20T07:13:46;5.83;;;3.50;;
68365;SDS011;55283;51.466;5.478;2022-11-20T07:16:11;4.10;;;3.60;;
68365;SDS011;55283;51.466;5.478;2022-11-20T07:18:37;4.93;;;3.63;;
68365;SDS011;55283;51.466;5.478;2022-11-20T07:21:06;6.35;;;3.60;;
68365;SDS011;55283;51.466;5.478;2022-11-20T07:23:34;4.45;;;3.60;;
68365;SDS011;55283;51.466;5.478;2022-11-20T07:26:07;3.83;;;3.30;;
68365;SDS011;55283;51.466;5.478;2022-11-20T07:28:34;4.43;;;3.30;;
68365;SDS011;55283;51.466;5.478;2022-11-20T07:31:00;3.88;;;3.35;;
68365;SDS011;55283;51.466;5.478;2022-11-20T07:33:25;4.27;;;3.30;;
68365;SDS011;55283;51.466;5.478;2022-11-20T07:35:51;6.90;;;3.72;;
68365;SDS011;55283;51.466;5.478;2022-11-20T07:38:16;5.70;;;3.70;;
68365;SDS011;55283;51.466;5.478;2022-11-20T07:40:42;8.67;;;6.77;;
68365;SDS011;55283;51.466;5.478;2022-11-20T07:43:09;10.53;;;8.10;;
68365;SDS011;55283;51.466;5.478;2022-11-20T07:45:35;10.05;;;7.88;;
68365;SDS011;55283;51.466;5.478;2022-11-20T07:48:02;10.00;;;8.32;;
68365;SDS011;55283;51.466;5.478;2022-11-20T07:50:28;12.17;;;8.23;;
68365;SDS011;55283;51.466;5.478;2022-11-20T07:53:04;9.82;;;8.57;;
68365;SDS011;55283;51.466;5.478;2022-11-20T07:55:31;10.25;;;8.20;;
68365;SDS011;55283;51.466;5.478;2022-11-20T07:57:58;9.60;;;7.50;;
68365;SDS011;55283;51.466;5.478;2022-11-20T08:00:25;7.72;;;6.72;;
68365;SDS011;55283;51.466;5.478;2022-11-20T08:02:51;7.55;;;6.70;;
68365;SDS011;55283;51.466;5.478;2022-11-20T08:05:17;9.47;;;6.00;;
68365;SDS011;55283;51.466;5.478;2022-11-20T08:07:43;6.20;;;5.55;;
68365;SDS011;55283;51.466;5.478;2022-11-20T08:10:11;7.47;;;5.53;;
68365;SDS011;55283;51.466;5.478;2022-11-20T08:12:45;9.30;;;5.33;;
68365;SDS011;55283;51.466;5.478;2022-11-20T08:15:30;7.93;;;5.47;;
68365;SDS011;55283;51.466;5.478;2022-11-20T08:18:01;6.28;;;5.18;;
68365;SDS011;55283;51.466;5.478;2022-11-20T08:20:28;5.80;;;4.90;;
68365;SDS011;55283;51.466;5.478;2022-11-20T08:22:59;5.70;;;4.60;;
68365;SDS011;55283;51.466;5.478;2022-11-20T08:25:26;6.05;;;4.70;;
68365;SDS011;55283;51.466;5.478;2022-11-20T08:27:58;5.90;;;4.80;;
68365;SDS011;55283;51.466;5.478;2022-11-20T08:30:25;6.28;;;4.47;;
68365;SDS011;55283;51.466;5.478;2022-11-20T08:32:59;6.20;;;4.70;;
68365;SDS011;55283;51.466;5.478;2022-11-20T08:35:27;5.90;;;4.63;;
68365;SDS011;55283;51.466;5.478;2022-11-20T08:37:54;5.00;;;4.43;;
68365;SDS011;55283;51.466;5.478;2022-11-20T08:40:20;8.20;;;4.30;;
68365;SDS011;55283;51.466;5.478;2022-11-20T08:42:47;5.03;;;4.15;;
68365;SDS011;55283;51.466;5.478;2022-11-20T08:45:14;5.53;;;3.90;;
68365;SDS011;55283;51.466;5.478;2022-11-20T08:47:40;5.07;;;4.20;;
68365;SDS011;55283;51.466;5.478;2022-11-20T08:50:07;5.47;;;3.70;;
68365;SDS011;55283;51.466;5.478;2022-11-20T08:52:33;5.40;;;3.93;;
68365;SDS011;55283;51.466;5.478;2022-11-20T08:55:00;5.47;;;3.85;;
68365;SDS011;55283;51.466;5.478;2022-11-20T08:57:26;4.30;;;3.90;;
68365;SDS011;55283;51.466;5.478;2022-11-20T08:59:51;5.87;;;3.80;;
68365;SDS011;55283;51.466;5.478;2022-11-20T09:02:19;5.95;;;3.80;;
68365;SDS011;55283;51.466;5.478;2022-11-20T09:04:45;5.77;;;4.00;;
68365;SDS011;55283;51.466;5.478;2022-11-20T09:07:11;5.55;;;4.03;;
68365;SDS011;55283;51.466;5.478;2022-11-20T09:09:38;5.90;;;3.83;;
68365;SDS011;55283;51.466;5.478;2022-11-20T09:12:04;5.13;;;4.10;;
68365;SDS011;55283;51.466;5.478;2022-11-20T09:14:29;4.57;;;3.77;;
68365;SDS011;55283;51.466;5.478;2022-11-20T09:16:56;5.13;;;4.13;;
68365;SDS011;55283;51.466;5.478;2022-11-20T09:19:23;4.30;;;3.60;;
68365;SDS011;55283;51.466;5.478;2022-11-20T09:21:50;4.70;;;3.80;;
68365;SDS011;55283;51.466;5.478;2022-11-20T09:24:17;5.10;;;3.95;;
68365;SDS011;55283;51.466;5.478;2022-11-20T09:26:45;4.75;;;3.70;;
68365;SDS011;55283;51.466;5.478;2022-11-20T09:29:12;6.83;;;4.13;;
68365;SDS011;55283;51.466;5.478;2022-11-20T09:31:38;5.60;;;4.30;;
68365;SDS011;55283;51.466;5.478;2022-11-20T09:34:04;7.37;;;4.00;;
68365;SDS011;55283;51.466;5.478;2022-11-20T09:36:31;6.80;;;4.03;;
68365;SDS011;55283;51.466;5.478;2022-11-20T09:38:57;5.93;;;4.17;;
68365;SDS011;55283;51.466;5.478;2022-11-20T09:53:02;6.47;;;4.13;;
68365;SDS011;55283;51.466;5.478;2022-11-20T09:55:46;5.43;;;4.10;;
68365;SDS011;55283;51.466;5.478;2022-11-20T09:58:15;5.63;;;4.17;;
68365;SDS011;55283;51.466;5.478;2022-11-20T10:00:54;5.68;;;4.10;;
68365;SDS011;55283;51.466;5.478;2022-11-20T10:06:11;6.07;;;4.50;;
68365;SDS011;55283;51.466;5.478;2022-11-20T10:08:44;5.93;;;4.78;;
68365;SDS011;55283;51.466;5.478;2022-11-20T10:17:00;7.57;;;5.20;;
68365;SDS011;55283;51.466;5.478;2022-11-20T10:25:18;6.63;;;4.47;;
68365;SDS011;55283;51.466;5.478;2022-11-20T10:30:28;6.75;;;4.93;;
68365;SDS011;55283;51.466;5.478;2022-11-20T10:32:59;6.83;;;4.70;;
68365;SDS011;55283;51.466;5.478;2022-11-20T10:36:22;6.45;;;4.85;;
68365;SDS011;55283;51.466;5.478;2022-11-20T10:38:34;7.15;;;4.88;;
68365;SDS011;55283;51.466;5.478;2022-11-20T10:41:04;7.22;;;5.10;;
68365;SDS011;55283;51.466;5.478;2022-11-20T10:43:50;7.20;;;4.83;;
68365;SDS011;55283;51.466;5.478;2022-11-20T10:46:22;7.47;;;4.70;;
68365;SDS011;55283;51.466;5.478;2022-11-20T10:48:50;6.50;;;4.75;;
68365;SDS011;55283;51.466;5.478;2022-11-20T10:51:30;7.63;;;5.20;;
68365;SDS011;55283;51.466;5.478;2022-11-20T10:54:19;7.15;;;4.93;;
68365;SDS011;55283;51.466;5.478;2022-11-20T10:57:17;7.68;;;4.90;;
68365;SDS011;55283;51.466;5.478;2022-11-20T11:02:39;6.97;;;5.10;;
68365;SDS011;55283;51.466;5.478;2022-11-20T11:05:22;6.95;;;4.80;;
68365;SDS011;55283;51.466;5.478;2022-11-20T11:07:55;7.60;;;5.00;;
68365;SDS011;55283;51.466;5.478;2022-11-20T11:13:21;6.15;;;4.78;;
68365;SDS011;55283;51.466;5.478;2022-11-20T11:15:50;9.82;;;4.85;;
68365;SDS011;55283;51.466;5.478;2022-11-20T11:18:26;7.43;;;4.90;;
68365;SDS011;55283;51.466;5.478;2022-11-20T11:20:53;8.82;;;5.10;;
68365;SDS011;55283;51.466;5.478;2022-11-20T11:23:39;8.48;;;5.00;;
68365;SDS011;55283;51.466;5.478;2022-11-20T11:26:20;7.60;;;5.33;;
68365;SDS011;55283;51.466;5.478;2022-11-20T11:28:53;9.23;;;5.53;;
68365;SDS011;55283;51.466;5.478;2022-11-20T11:31:28;6.72;;;5.13;;
68365;SDS011;55283;51.466;5.478;2022-11-20T11:34:08;8.13;;;5.40;;
68365;SDS011;55283;51.466;5.478;2022-11-20T11:36:39;7.80;;;5.57;;
68365;SDS011;55283;51.466;5.478;2022-11-20T11:39:08;10.63;;;5.50;;
68365;SDS011;55283;51.466;5.478;2022-11-20T11:41:40;9.25;;;5.80;;
68365;SDS011;55283;51.466;5.478;2022-11-20T11:44:17;9.27;;;6.00;;
68365;SDS011;55283;51.466;5.478;2022-11-20T11:47:29;8.90;;;5.65;;
68365;SDS011;55283;51.466;5.478;2022-11-20T11:50:00;8.95;;;5.35;;
68365;SDS011;55283;51.466;5.478;2022-11-20T11:55:18;8.90;;;5.57;;
68365;SDS011;55283;51.466;5.478;2022-11-20T11:57:54;7.80;;;5.40;;
68365;SDS011;55283;51.466;5.478;2022-11-20T12:00:29;8.02;;;5.55;;
68365;SDS011;55283;51.466;5.478;2022-11-20T12:03:02;9.90;;;5.60;;
68365;SDS011;55283;51.466;5.478;2022-11-20T12:05:37;7.82;;;5.20;;
68365;SDS011;55283;51.466;5.478;2022-11-20T12:08:14;7.70;;;5.43;;
68365;SDS011;55283;51.466;5.478;2022-11-20T12:13:19;8.05;;;5.53;;
68365;SDS011;55283;51.466;5.478;2022-11-20T12:15:50;8.27;;;5.47;;
68365;SDS011;55283;51.466;5.478;2022-11-20T12:18:18;8.20;;;5.63;;
68365;SDS011;55283;51.466;5.478;2022-11-20T12:20:47;7.65;;;5.38;;
68365;SDS011;55283;51.466;5.478;2022-11-20T12:26:27;9.32;;;5.90;;
68365;SDS011;55283;51.466;5.478;2022-11-20T12:29:25;8.13;;;5.80;;
68365;SDS011;55283;51.466;5.478;2022-11-20T12:37:35;8.83;;;5.13;;
68365;SDS011;55283;51.466;5.478;2022-11-20T12:40:27;7.68;;;5.50;;
68365;SDS011;55283;51.466;5.478;2022-11-20T12:43:21;8.95;;;5.85;;
68365;SDS011;55283;51.466;5.478;2022-11-20T12:54:50;8.13;;;5.57;;
68365;SDS011;55283;51.466;5.478;2022-11-20T12:57:53;7.90;;;5.33;;
68365;SDS011;55283;51.466;5.478;2022-11-20T13:00:24;8.88;;;6.53;;
68365;SDS011;55283;51.466;5.478;2022-11-20T13:08:21;8.20;;;6.15;;
68365;SDS011;55283;51.466;5.478;2022-11-20T13:19:28;8.82;;;5.85;;
68365;SDS011;55283;51.466;5.478;2022-11-20T13:21:55;8.80;;;5.93;;
68365;SDS011;55283;51.466;5.478;2022-11-20T13:29:33;9.53;;;5.80;;
68365;SDS011;55283;51.466;5.478;2022-11-20T13:32:05;8.95;;;6.03;;
68365;SDS011;55283;51.466;5.478;2022-11-20T13:34:57;9.73;;;6.25;;
68365;SDS011;55283;51.466;5.478;2022-11-20T13:37:32;8.93;;;5.97;;
68365;SDS011;55283;51.466;5.478;2022-11-20T13:40:20;8.57;;;5.83;;
68365;SDS011;55283;51.466;5.478;2022-11-20T13:46:09;8.07;;;5.93;;
68365;SDS011;55283;51.466;5.478;2022-11-20T13:48:41;7.83;;;6.07;;
68365;SDS011;55283;51.466;5.478;2022-11-20T14:02:13;9.57;;;6.13;;
68365;SDS011;55283;51.466;5.478;2022-11-20T14:04:49;9.55;;;5.90;;
68365;SDS011;55283;51.466;5.478;2022-11-20T14:07:19;10.17;;;6.73;;
68365;SDS011;55283;51.466;5.478;2022-11-20T14:09:50;8.43;;;6.30;;
68365;SDS011;55283;51.466;5.478;2022-11-20T14:12:21;9.68;;;6.43;;
68365;SDS011;55283;51.466;5.478;2022-11-20T14:14:52;7.77;;;5.70;;
68365;SDS011;55283;51.466;5.478;2022-11-20T14:19:54;8.45;;;5.80;;
68365;SDS011;55283;51.466;5.478;2022-11-20T14:22:25;7.63;;;5.43;;
68365;SDS011;55283;51.466;5.478;2022-11-20T14:25:01;7.53;;;5.70;;
68365;SDS011;55283;51.466;5.478;2022-11-20T14:27:40;8.90;;;5.80;;
68365;SDS011;55283;51.466;5.478;2022-11-20T14:30:15;9.05;;;6.18;;
68365;SDS011;55283;51.466;5.478;2022-11-20T14:32:42;9.03;;;6.33;;
68365;SDS011;55283;51.466;5.478;2022-11-20T14:35:17;9.82;;;6.18;;
68365;SDS011;55283;51.466;5.478;2022-11-20T14:37:53;9.63;;;6.50;;
68365;SDS011;55283;51.466;5.478;2022-11-20T14:40:23;8.23;;;6.20;;
68365;SDS011;55283;51.466;5.478;2022-11-20T14:43:18;8.18;;;6.15;;
68365;SDS011;55283;51.466;5.478;2022-11-20T14:45:55;8.48;;;6.18;;
68365;SDS011;55283;51.466;5.478;2022-11-20T14:48:29;9.50;;;6.07;;
68365;SDS011;55283;51.466;5.478;2022-11-20T14:50:58;9.07;;;5.88;;
68365;SDS011;55283;51.466;5.478;2022-11-20T14:53:25;8.93;;;6.40;;
68365;SDS011;55283;51.466;5.478;2022-11-20T14:55:54;10.97;;;6.07;;
68365;SDS011;55283;51.466;5.478;2022-11-20T14:58:27;8.93;;;5.90;;
68365;SDS011;55283;51.466;5.478;2022-11-20T15:00:58;8.55;;;5.90;;
68365;SDS011;55283;51.466;5.478;2022-11-20T15:06:03;8.53;;;5.77;;
68365;SDS011;55283;51.466;5.478;2022-11-20T15:08:35;6.90;;;5.40;;
68365;SDS011;55283;51.466;5.478;2022-11-20T15:11:01;7.95;;;5.93;;
68365;SDS011;55283;51.466;5.478;2022-11-20T15:13:31;9.53;;;5.60;;
68365;SDS011;55283;51.466;5.478;2022-11-20T15:16:00;7.57;;;5.32;;
68365;SDS011;55283;51.466;5.478;2022-11-20T15:18:31;8.15;;;5.63;;
68365;SDS011;55283;51.466;5.478;2022-11-20T15:21:02;6.87;;;5.53;;
68365;SDS011;55283;51.466;5.478;2022-11-20T15:23:37;13.65;;;5.97;;
68365;SDS011;55283;51.466;5.478;2022-11-20T15:26:04;9.38;;;5.85;;
68365;SDS011;55283;51.466;5.478;2022-11-20T15:28:31;8.57;;;5.65;;
68365;SDS011;55283;51.466;5.478;2022-11-20T15:31:02;8.03;;;5.73;;
68365;SDS011;55283;51.466;5.478;2022-11-20T15:33:30;7.35;;;5.47;;
68365;SDS011;55283;51.466;5.478;2022-11-20T15:35:58;8.70;;;5.63;;
68365;SDS011;55283;51.466;5.478;2022-11-20T15:38:24;9.03;;;6.07;;
68365;SDS011;55283;51.466;5.478;2022-11-20T15:40:50;7.20;;;5.45;;
68365;SDS011;55283;51.466;5.478;2022-11-20T15:43:16;7.97;;;5.67;;
68365;SDS011;55283;51.466;5.478;2022-11-20T15:48:23;8.38;;;5.75;;
68365;SDS011;55283;51.466;5.478;2022-11-20T15:51:01;7.77;;;5.77;;
68365;SDS011;55283;51.466;5.478;2022-11-20T15:53:31;10.15;;;6.22;;
68365;SDS011;55283;51.466;5.478;2022-11-20T15:55:58;7.78;;;5.95;;
68365;SDS011;55283;51.466;5.478;2022-11-20T15:58:24;7.77;;;5.60;;
68365;SDS011;55283;51.466;5.478;2022-11-20T16:00:51;7.75;;;5.57;;
68365;SDS011;55283;51.466;5.478;2022-11-20T16:03:17;8.00;;;5.70;;
68365;SDS011;55283;51.466;5.478;2022-11-20T16:05:43;7.68;;;5.72;;
68365;SDS011;55283;51.466;5.478;2022-11-20T16:08:09;7.60;;;5.28;;
68365;SDS011;55283;51.466;5.478;2022-11-20T16:10:36;9.00;;;5.63;;
68365;SDS011;55283;51.466;5.478;2022-11-20T16:13:03;8.25;;;5.68;;
68365;SDS011;55283;51.466;5.478;2022-11-20T16:15:52;10.18;;;5.70;;
68365;SDS011;55283;51.466;5.478;2022-11-20T16:18:25;16.02;;;5.68;;
68365;SDS011;55283;51.466;5.478;2022-11-20T16:20:51;8.63;;;5.40;;
68365;SDS011;55283;51.466;5.478;2022-11-20T16:23:17;7.20;;;5.37;;
68365;SDS011;55283;51.466;5.478;2022-11-20T16:25:45;8.10;;;5.05;;
68365;SDS011;55283;51.466;5.478;2022-11-20T16:28:12;6.55;;;5.10;;
68365;SDS011;55283;51.466;5.478;2022-11-20T16:30:38;8.07;;;5.03;;
68365;SDS011;55283;51.466;5.478;2022-11-20T16:33:08;8.57;;;4.80;;
68365;SDS011;55283;51.466;5.478;2022-11-20T16:35:40;11.77;;;5.00;;
68365;SDS011;55283;51.466;5.478;2022-11-20T16:38:05;6.50;;;4.80;;
68365;SDS011;55283;51.466;5.478;2022-11-20T16:40:32;5.93;;;4.80;;
68365;SDS011;55283;51.466;5.478;2022-11-20T16:43:01;6.80;;;4.80;;
68365;SDS011;55283;51.466;5.478;2022-11-20T16:45:33;7.25;;;4.80;;
68365;SDS011;55283;51.466;5.478;2022-11-20T16:47:58;6.77;;;4.60;;